createdAt,value
2022-11-24T00:01:21.051Z,9.11
2022-11-24T00:04:24.059Z,9.11
2022-11-24T00:07:25.551Z,9.09
2022-11-24T00:10:26.960Z,9.10
2022-11-24T00:13:28.396Z,9.09
2022-11-24T00:16:32.151Z,9.07
2022-11-24T00:19:33.563Z,9.01
2022-11-24T00:22:34.970Z,9.03
2022-11-24T00:25:36.564Z,8.87
2022-11-24T00:28:38.692Z,8.80
2022-11-24T00:31:41.882Z,8.87
2022-11-24T00:34:43.295Z,8.80
2022-11-24T00:37:44.699Z,8.86
2022-11-24T00:40:46.099Z,8.86
2022-11-24T00:43:47.517Z,8.81
2022-11-24T00:46:49.084Z,9.04
2022-11-24T00:49:50.607Z,8.98
2022-11-24T00:52:52.014Z,9.14
2022-11-24T00:55:53.987Z,9.05
2022-11-24T00:58:55.476Z,9.14
2022-11-24T01:01:56.918Z,9.06
2022-11-24T01:04:58.492Z,9.11
2022-11-24T01:07:59.925Z,9.14
2022-11-24T01:11:14.173Z,9.16
2022-11-24T01:14:15.569Z,9.15
2022-11-24T01:17:17.137Z,8.98
2022-11-24T01:20:18.570Z,9.15
2022-11-24T01:23:20.010Z,9.18
2022-11-24T01:26:22.219Z,9.05
2022-11-24T01:29:23.863Z,9.08
2022-11-24T01:32:25.301Z,9.04
2022-11-24T01:35:28.086Z,9.04
2022-11-24T01:38:29.722Z,8.99
2022-11-24T01:41:31.279Z,8.94
2022-11-24T01:44:33.619Z,8.99
2022-11-24T01:47:40.704Z,8.91
2022-11-24T01:50:43.147Z,8.89
2022-11-24T01:53:47.597Z,8.93
2022-11-24T01:56:53.683Z,8.94
2022-11-24T02:00:02.112Z,8.82
2022-11-24T02:03:19.243Z,8.43
2022-11-24T02:06:27.869Z,8.57
2022-11-24T02:09:55.739Z,8.47
2022-11-24T02:12:59.518Z,8.41
2022-11-24T02:16:02.299Z,8.45
2022-11-24T02:19:12.855Z,8.32
2022-11-24T02:22:41.017Z,8.44
2022-11-24T02:26:20.876Z,8.39
2022-11-24T02:29:22.460Z,8.36
2022-11-24T02:32:24.101Z,8.21
2022-11-24T02:35:27.393Z,8.28
2022-11-24T02:38:31.094Z,8.25
2022-11-24T02:41:32.521Z,8.24
2022-11-24T02:44:40.406Z,8.07
2022-11-24T02:47:41.926Z,8.00
2022-11-24T02:50:43.441Z,8.14
2022-11-24T02:53:45.243Z,7.84
2022-11-24T02:56:46.692Z,7.82
2022-11-24T02:59:48.086Z,7.83
2022-11-24T03:02:49.682Z,7.92
2022-11-24T03:05:51.242Z,8.06
2022-11-24T03:08:52.632Z,8.19
2022-11-24T03:11:54.044Z,8.25
2022-11-24T03:14:55.496Z,8.36
2022-11-24T03:17:56.994Z,8.46
2022-11-24T03:21:01.371Z,8.60
2022-11-24T03:24:02.855Z,8.62
2022-11-24T03:27:04.677Z,8.68
2022-11-24T03:30:06.809Z,8.83
2022-11-24T03:33:08.295Z,8.98
2022-11-24T03:36:09.988Z,9.00
2022-11-24T03:39:11.438Z,8.98
2022-11-24T03:42:12.979Z,9.02
2022-11-24T03:45:45.542Z,8.96
2022-11-24T03:48:36.246Z,8.89
2022-11-24T03:51:37.696Z,8.74
2022-11-24T03:54:39.156Z,8.56
2022-11-24T03:57:40.560Z,8.56
2022-11-24T04:00:42.203Z,8.72
2022-11-24T04:03:43.841Z,8.45
2022-11-24T04:06:45.250Z,8.72
2022-11-24T04:09:46.710Z,8.78
2022-11-24T04:12:48.126Z,8.84
2022-11-24T04:15:49.855Z,8.83
2022-11-24T04:18:54.567Z,8.76
2022-11-24T04:21:56.056Z,8.59
2022-11-24T04:24:57.464Z,8.51
2022-11-24T04:27:58.986Z,8.46
2022-11-24T04:31:04.570Z,8.43
2022-11-24T04:34:06.052Z,8.43
2022-11-24T04:37:07.447Z,8.48
2022-11-24T04:40:10.846Z,8.53
2022-11-24T04:43:12.347Z,8.60
2022-11-24T04:46:13.833Z,8.45
2022-11-24T04:49:15.322Z,8.36
2022-11-24T04:52:19.462Z,8.47
2022-11-24T04:55:21.012Z,8.56
2022-11-24T04:58:22.422Z,8.53
2022-11-24T05:01:23.892Z,8.50
2022-11-24T05:04:25.445Z,8.50
2022-11-24T05:07:27.501Z,8.50
2022-11-24T05:10:37.954Z,8.60
2022-11-24T05:13:39.383Z,8.69
2022-11-24T05:16:40.854Z,8.65
2022-11-24T05:19:42.544Z,8.59
2022-11-24T05:22:44.267Z,8.55
2022-11-24T05:25:47.779Z,8.63
2022-11-24T05:28:49.465Z,8.70
2022-11-24T05:31:50.903Z,8.79
2022-11-24T05:34:53.872Z,8.80
2022-11-24T05:37:55.343Z,8.75
2022-11-24T05:41:05.167Z,8.73
2022-11-24T05:44:06.745Z,8.75
2022-11-24T05:47:08.179Z,8.75
2022-11-24T05:50:12.679Z,8.84
2022-11-24T05:53:14.212Z,8.80
2022-11-24T05:56:15.618Z,8.82
2022-11-24T05:59:17.059Z,8.67
2022-11-24T06:02:19.156Z,8.68
2022-11-24T06:05:20.750Z,8.34
2022-11-24T06:08:25.542Z,8.54
2022-11-24T06:11:29.556Z,8.46
2022-11-24T06:14:31.035Z,8.39
2022-11-24T06:17:32.517Z,8.42
2022-11-24T06:20:33.961Z,8.51
2022-11-24T06:23:35.946Z,8.57
2022-11-24T06:26:37.335Z,8.43
2022-11-24T06:29:39.181Z,8.50
2022-11-24T06:32:49.177Z,8.67
2022-11-24T06:35:51.174Z,8.65
2022-11-24T06:38:53.085Z,8.74
2022-11-24T06:41:54.534Z,8.75
2022-11-24T06:44:55.994Z,8.80
2022-11-24T06:47:57.749Z,8.93
2022-11-24T06:51:00.629Z,8.70
2022-11-24T06:54:02.373Z,8.57
2022-11-24T06:57:03.856Z,8.52
2022-11-24T07:00:07.915Z,8.52
2022-11-24T07:03:16.263Z,8.47
2022-11-24T07:06:19.028Z,8.18
2022-11-24T07:09:20.431Z,8.37
2022-11-24T07:12:21.968Z,8.26
2022-11-24T07:15:23.348Z,7.97
2022-11-24T07:18:24.744Z,8.22
2022-11-24T07:21:28.080Z,8.33
2022-11-24T07:24:29.503Z,8.34
2022-11-24T07:27:30.935Z,8.61
2022-11-24T07:30:32.372Z,8.52
2022-11-24T07:33:34.230Z,8.53
2022-11-24T07:36:35.709Z,8.61
2022-11-24T07:39:37.193Z,8.56
2022-11-24T07:42:38.606Z,8.76
2022-11-24T07:45:40.057Z,8.39
2022-11-24T07:48:41.504Z,8.49
2022-11-24T07:51:42.896Z,8.23
2022-11-24T07:54:44.337Z,8.53
2022-11-24T07:57:45.766Z,8.52
2022-11-24T08:00:47.606Z,8.34
2022-11-24T08:03:49.072Z,8.46
2022-11-24T08:06:50.681Z,8.63
2022-11-24T08:09:52.332Z,8.70
2022-11-24T08:12:53.783Z,8.75
2022-11-24T08:15:55.211Z,8.72
2022-11-24T08:18:56.760Z,8.50
2022-11-24T08:21:58.135Z,8.37
2022-11-24T08:24:59.592Z,8.45
2022-11-24T08:28:02.752Z,8.51
2022-11-24T08:31:06.060Z,8.60
2022-11-24T08:34:07.580Z,8.79
2022-11-24T08:37:08.971Z,8.78
2022-11-24T08:40:11.216Z,8.76
2022-11-24T08:43:12.682Z,8.63
2022-11-24T08:46:18.887Z,8.81
2022-11-24T08:49:21.551Z,8.86
2022-11-24T08:52:23.046Z,8.91
2022-11-24T08:55:24.489Z,8.90
2022-11-24T08:58:25.871Z,9.09
2022-11-24T09:01:28.911Z,8.97
2022-11-24T09:04:30.471Z,8.89
2022-11-24T09:07:31.947Z,9.01
2022-11-24T09:10:33.394Z,9.02
2022-11-24T09:13:35.729Z,9.48
2022-11-24T09:16:37.173Z,9.74
2022-11-24T09:19:38.577Z,9.64
2022-11-24T09:22:41.617Z,9.75
2022-11-24T09:25:43.103Z,9.91
2022-11-24T09:28:45.699Z,10.01
2022-11-24T09:31:47.081Z,10.15
2022-11-24T09:34:50.780Z,10.15
2022-11-24T09:37:52.260Z,9.91
2022-11-24T09:40:56.554Z,9.98
2022-11-24T09:44:06.252Z,10.02
2022-11-24T09:47:41.872Z,10.03
2022-11-24T09:50:46.021Z,10.06
2022-11-24T09:53:54.923Z,10.78
2022-11-24T09:57:00.776Z,10.86
2022-11-24T10:00:10.870Z,10.54
2022-11-24T10:03:23.464Z,10.56
2022-11-24T10:06:44.525Z,10.47
2022-11-24T10:10:00.824Z,10.33
2022-11-24T10:13:30.690Z,10.15
2022-11-24T10:16:51.664Z,10.50
2022-11-24T10:20:14.975Z,10.52
2022-11-24T10:23:39.844Z,10.51
2022-11-24T10:26:51.386Z,10.58
2022-11-24T10:29:52.961Z,10.58
2022-11-24T10:33:02.637Z,10.58
2022-11-24T10:36:12.897Z,10.51
2022-11-24T10:39:23.709Z,10.83
2022-11-24T10:42:29.414Z,10.53
2022-11-24T10:45:32.012Z,10.77
2022-11-24T10:48:40.367Z,10.99
2022-11-24T10:51:52.783Z,10.91
2022-11-24T10:54:55.727Z,10.78
2022-11-24T10:58:15.593Z,11.08
2022-11-24T11:01:16.939Z,10.93
2022-11-24T11:04:21.314Z,11.01
2022-11-24T11:07:25.558Z,11.03
2022-11-24T11:10:27.045Z,11.14
2022-11-24T11:13:30.458Z,10.99
2022-11-24T11:16:39.240Z,10.91
2022-11-24T11:19:49.563Z,11.16
2022-11-24T11:22:51.688Z,11.20
2022-11-24T11:26:27.715Z,11.43
2022-11-24T11:36:17.339Z,11.17
2022-11-24T11:39:24.761Z,11.41
2022-11-24T11:43:02.242Z,11.46
2022-11-24T11:46:17.607Z,11.44
2022-11-24T11:49:19.234Z,10.97
2022-11-24T11:52:54.695Z,10.99
2022-11-24T11:56:08.280Z,11.06
2022-11-24T12:00:03.615Z,11.42
2022-11-24T12:03:32.576Z,11.38
2022-11-24T12:06:59.323Z,11.11
2022-11-24T12:10:19.509Z,11.62
2022-11-24T12:13:32.964Z,11.45
2022-11-24T12:16:54.913Z,11.33
2022-11-24T12:19:58.976Z,11.64
2022-11-24T12:24:04.168Z,12.01
2022-11-24T12:27:10.729Z,11.93
2022-11-24T12:30:17.275Z,11.94
2022-11-24T12:33:50.501Z,12.27
2022-11-24T12:37:26.541Z,11.57
2022-11-24T12:40:35.648Z,11.56
2022-11-24T12:43:40.167Z,11.48
2022-11-24T12:47:08.697Z,11.50
2022-11-24T12:50:16.240Z,11.56
2022-11-24T12:53:28.432Z,11.36
2022-11-24T12:56:42.466Z,11.10
2022-11-24T13:00:16.046Z,11.14
2022-11-24T13:04:08.186Z,10.87
2022-11-24T13:07:14.748Z,11.15
2022-11-24T13:14:28.120Z,11.45
2022-11-24T13:17:36.336Z,11.55
2022-11-24T13:20:44.877Z,11.53
2022-11-24T13:23:59.889Z,11.40
2022-11-24T13:27:13.462Z,11.68
2022-11-24T13:30:33.106Z,11.68
2022-11-24T13:33:35.615Z,11.54
2022-11-24T13:36:52.522Z,11.63
2022-11-24T13:40:03.015Z,11.76
2022-11-24T13:43:04.430Z,11.78
2022-11-24T13:46:09.607Z,11.67
2022-11-24T13:49:14.138Z,11.67
2022-11-24T13:52:34.668Z,11.65
2022-11-24T13:55:38.966Z,11.63
2022-11-24T13:58:43.665Z,11.70
2022-11-24T14:01:46.758Z,11.56
2022-11-24T14:04:48.802Z,11.60
2022-11-24T14:07:52.932Z,11.62
2022-11-24T14:11:00.181Z,11.61
2022-11-24T14:14:15.959Z,11.23
2022-11-24T14:17:23.597Z,11.26
2022-11-24T14:20:27.263Z,11.29
2022-11-24T14:23:28.817Z,11.29
2022-11-24T14:26:40.998Z,11.31
2022-11-24T14:30:15.349Z,11.24
2022-11-24T14:33:19.718Z,11.29
2022-11-24T14:36:21.149Z,11.25
2022-11-24T14:39:25.295Z,11.15
2022-11-24T14:42:27.559Z,11.15
2022-11-24T14:45:29.081Z,11.08
2022-11-24T14:48:33.379Z,11.19
2022-11-24T14:51:43.166Z,11.15
2022-11-24T14:54:48.280Z,11.06
2022-11-24T14:57:49.819Z,11.02
2022-11-24T15:01:32.503Z,11.15
2022-11-24T15:08:03.424Z,10.91
2022-11-24T15:11:06.341Z,10.85
2022-11-24T15:14:47.582Z,10.68
2022-11-24T15:17:59.129Z,10.66
2022-11-24T15:21:00.907Z,10.51
2022-11-24T15:24:07.130Z,10.20
2022-11-24T15:27:08.634Z,10.19
2022-11-24T15:30:12.422Z,10.20
2022-11-24T15:33:16.561Z,9.98
2022-11-24T15:36:19.431Z,9.67
2022-11-24T15:39:20.845Z,9.73
2022-11-24T15:42:22.220Z,9.72
2022-11-24T15:45:26.319Z,9.51
2022-11-24T15:48:28.951Z,9.68
2022-11-24T15:51:31.559Z,9.45
2022-11-24T15:54:33.383Z,9.51
2022-11-24T15:57:35.032Z,9.37
2022-11-24T16:00:37.701Z,9.34
2022-11-24T16:03:46.787Z,9.10
2022-11-24T16:06:49.103Z,9.04
2022-11-24T16:09:50.529Z,8.80
2022-11-24T16:12:51.924Z,8.75
2022-11-24T16:15:53.670Z,8.84
2022-11-24T16:18:55.272Z,8.86
2022-11-24T16:21:56.756Z,8.88
2022-11-24T16:24:58.242Z,8.79
2022-11-24T16:27:59.720Z,8.66
2022-11-24T16:31:01.218Z,8.55
2022-11-24T16:34:02.685Z,8.50
2022-11-24T16:37:04.121Z,8.51
2022-11-24T16:40:06.317Z,8.56
2022-11-24T16:43:07.722Z,8.59
2022-11-24T16:46:09.144Z,8.80
2022-11-24T16:49:10.600Z,8.81
2022-11-24T16:52:12.156Z,8.42
2022-11-24T16:55:14.209Z,8.42
2022-11-24T16:58:15.624Z,8.39
2022-11-24T17:01:17.115Z,8.49
2022-11-24T17:04:18.574Z,8.80
2022-11-24T17:07:20.538Z,8.76
2022-11-24T17:10:22.013Z,8.88
2022-11-24T17:13:24.376Z,8.88
2022-11-24T17:16:25.971Z,8.79
2022-11-24T17:19:27.408Z,8.81
2022-11-24T17:22:28.811Z,8.76
2022-11-24T17:25:32.011Z,8.69
2022-11-24T17:28:34.088Z,8.96
2022-11-24T17:31:36.111Z,9.07
2022-11-24T17:34:37.799Z,9.25
2022-11-24T17:37:39.233Z,9.21
2022-11-24T17:40:45.667Z,9.10
2022-11-24T17:43:55.718Z,8.85
2022-11-24T17:46:58.809Z,8.78
2022-11-24T17:50:00.288Z,8.91
2022-11-24T17:53:01.768Z,8.94
2022-11-24T17:56:04.399Z,9.02
2022-11-24T17:59:05.905Z,9.16
2022-11-24T18:02:09.382Z,9.00
2022-11-24T18:05:10.901Z,9.10
2022-11-24T18:08:12.324Z,9.12
2022-11-24T18:11:38.172Z,9.00
2022-11-24T18:14:39.634Z,9.05
2022-11-24T18:17:41.025Z,8.91
2022-11-24T18:20:42.506Z,8.81
2022-11-24T18:23:44.756Z,8.83
2022-11-24T18:26:46.224Z,8.79
2022-11-24T18:29:52.022Z,8.85
2022-11-24T18:32:58.242Z,8.86
2022-11-24T18:36:01.463Z,8.81
2022-11-24T18:39:05.746Z,8.82
2022-11-24T18:42:07.233Z,8.62
2022-11-24T18:45:09.076Z,8.79
2022-11-24T18:48:10.521Z,8.89
2022-11-24T18:51:15.861Z,8.72
2022-11-24T18:54:17.430Z,8.77
2022-11-24T18:57:18.991Z,8.58
2022-11-24T19:00:20.607Z,8.56
2022-11-24T19:03:22.224Z,8.54
2022-11-24T19:06:32.909Z,8.83
2022-11-24T19:09:34.443Z,8.52
2022-11-24T19:12:35.918Z,8.44
2022-11-24T19:15:37.302Z,8.31
2022-11-24T19:18:38.799Z,8.67
2022-11-24T19:21:40.911Z,8.37
2022-11-24T19:24:42.567Z,8.61
2022-11-24T19:27:44.024Z,8.80
2022-11-24T19:30:45.438Z,8.83
2022-11-24T19:33:47.254Z,8.74
2022-11-24T19:36:48.773Z,7.98
2022-11-24T19:39:50.995Z,8.62
2022-11-24T19:42:53.359Z,8.61
2022-11-24T19:45:55.249Z,8.59
2022-11-24T19:49:00.305Z,8.29
2022-11-24T19:52:02.506Z,8.43
2022-11-24T19:55:07.188Z,7.95
2022-11-24T19:58:09.040Z,8.39
2022-11-24T20:01:34.168Z,8.47
2022-11-24T20:04:39.587Z,8.62
2022-11-24T20:07:41.108Z,8.54
2022-11-24T20:10:42.654Z,8.61
2022-11-24T20:13:45.436Z,8.50
2022-11-24T20:16:47.572Z,8.47
2022-11-24T20:19:49.046Z,8.35
2022-11-24T20:22:50.427Z,8.35
2022-11-24T20:25:51.878Z,8.42
2022-11-24T20:28:55.188Z,8.35
2022-11-24T20:31:56.950Z,8.36
2022-11-24T20:34:58.497Z,8.01
2022-11-24T20:37:59.896Z,8.27
2022-11-24T20:41:09.192Z,8.30
2022-11-24T20:44:15.327Z,8.10
2022-11-24T20:47:17.046Z,8.07
2022-11-24T20:50:18.570Z,7.86
2022-11-24T20:53:20.114Z,7.78
2022-11-24T20:56:23.746Z,7.70
2022-11-24T20:59:25.742Z,7.81
2022-11-24T21:02:27.322Z,7.73
2022-11-24T21:05:28.773Z,7.69
2022-11-24T21:08:38.567Z,7.34
2022-11-24T21:11:40.086Z,7.21
2022-11-24T21:14:41.679Z,7.67
2022-11-24T21:17:43.167Z,7.80
2022-11-24T21:20:45.111Z,7.57
2022-11-24T21:23:47.724Z,7.58
2022-11-24T21:26:51.681Z,7.41
2022-11-24T21:29:53.439Z,7.43
2022-11-24T21:32:54.953Z,7.50
2022-11-24T21:36:02.334Z,7.64
2022-11-24T21:39:04.092Z,7.73
2022-11-24T21:42:05.783Z,7.74
2022-11-24T21:45:10.678Z,7.45
2022-11-24T21:48:12.212Z,7.26
2022-11-24T21:51:16.527Z,7.11
2022-11-24T21:54:17.939Z,7.04
2022-11-24T21:57:19.323Z,7.14
2022-11-24T22:00:20.869Z,7.32
2022-11-24T22:03:22.379Z,7.23
2022-11-24T22:06:24.054Z,7.23
2022-11-24T22:09:25.491Z,7.22
2022-11-24T22:12:28.525Z,7.45
2022-11-24T22:15:30.010Z,7.39
2022-11-24T22:18:37.856Z,7.39
2022-11-24T22:21:39.293Z,7.23
2022-11-24T22:24:41.203Z,7.11
2022-11-24T22:27:42.834Z,7.21
2022-11-24T22:30:44.305Z,7.27
2022-11-24T22:33:46.535Z,7.12
2022-11-24T22:36:48.084Z,7.18
2022-11-24T22:39:49.716Z,7.06
2022-11-24T22:42:51.164Z,7.14
2022-11-24T22:45:52.600Z,7.06
2022-11-24T22:48:54.862Z,6.99
2022-11-24T22:51:56.287Z,6.96
2022-11-24T22:54:57.669Z,6.92
2022-11-24T22:57:59.083Z,7.10
2022-11-24T23:01:12.179Z,7.19
2022-11-24T23:04:13.655Z,7.10
2022-11-24T23:07:15.340Z,6.93
2022-11-24T23:10:16.918Z,6.87
2022-11-24T23:13:18.372Z,6.54
2022-11-24T23:16:20.628Z,6.53
2022-11-24T23:19:22.048Z,6.36
2022-11-24T23:22:23.479Z,6.50
2022-11-24T23:25:24.874Z,6.68
2022-11-24T23:28:26.340Z,6.70
2022-11-24T23:31:31.233Z,6.62
2022-11-24T23:34:32.880Z,6.76
2022-11-24T23:37:59.989Z,6.85
2022-11-24T23:40:56.876Z,7.03
2022-11-24T23:43:58.687Z,7.01
2022-11-24T23:47:00.069Z,6.99
2022-11-24T23:50:01.459Z,7.09
2022-11-24T23:53:02.872Z,7.04
2022-11-24T23:56:05.071Z,7.00
2022-11-24T23:59:06.475Z,7.11
